This is the latest recevied weather packets stored in our database for station/object W4SKW. If no packets are shown the sender has not sent any weather packets the latest 10 day(s).
| Time | Temp. | Humidity | Pressure | Rain* | Wind** | Luminosity | Snow |
|---|---|---|---|---|---|---|---|
| 1777485444 | 26.67° C | 72% | 1013.6 hPa | 0 mm | - | 314 W/m² | - |
| 1777485140 | 25.56° C | 75% | 1013.5 hPa | 0 mm | - | 799 W/m² | - |
| 1777484837 | 26.11° C | 77% | 1013.6 hPa | 0 mm | - | 224 W/m² | - |
| 1777484534 | 26.11° C | 77% | 1013.6 hPa | 0 mm | - | 224 W/m² | - |
| 1777484231 | 26.11° C | 77% | 1013.7 hPa | 0 mm | - | 824 W/m² | - |
| 1777483927 | 25.56° C | 74% | 1013.7 hPa | 0 mm | - | 678 W/m² | - |
| 1777483623 | 25.56° C | 74% | 1013.7 hPa | 0 mm | - | 678 W/m² | - |
| 1777483318 | 25.56° C | 76% | 1013.8 hPa | 0 mm | - | 851 W/m² | - |
| 1777483015 | 25.56° C | 73% | 1014 hPa | 0 mm | - | 422 W/m² | - |
| 1777482711 | 25.56° C | 73% | 1014.1 hPa | 0 mm | - | 462 W/m² | - |
| 1777482407 | 25° C | 74% | 1014.1 hPa | 0 mm | - | 636 W/m² | - |
| 1777482105 | 25° C | 75% | 1014 hPa | 0 mm | - | 252 W/m² | - |
| 1777481803 | 25.56° C | 74% | 1014.2 hPa | 0 mm | - | 914 W/m² | - |
| 1777481500 | 25° C | 77% | 1013.9 hPa | 0 mm | - | 703 W/m² | - |
| 1777481196 | 25.56° C | 78% | 1014.2 hPa | 0 mm | - | 736 W/m² | - |
| 1777480893 | 24.44° C | 76% | 1014.1 hPa | 0 mm | - | 696 W/m² | - |
| 1777480589 | 24.44° C | 74% | 1014.1 hPa | 0 mm | - | 762 W/m² | - |
| 1777480287 | 24.44° C | 75% | 1014.3 hPa | 0 mm | - | 738 W/m² | - |
| 1777479982 | 24.44° C | 74% | 1014.5 hPa | 0 mm | - | 782 W/m² | - |
| 1777479679 | 23.89° C | 76% | 1014.6 hPa | 0 mm | - | 713 W/m² | - |
| 1777479378 | 23.89° C | 77% | 1014.7 hPa | 0 mm | - | 650 W/m² | - |
| 1777479074 | 23.89° C | 78% | 1014.5 hPa | 0 mm | - | 729 W/m² | - |
| 1777478770 | 23.89° C | 77% | 1014.6 hPa | 0 mm | - | 309 W/m² | - |
| 1777478467 | 23.33° C | 78% | 1014.7 hPa | 0 mm | - | 602 W/m² | - |
| 1777478164 | 23.33° C | 78% | 1014.7 hPa | 0 mm | - | 602 W/m² | - |
* Rain latest hour (hover to see other rain measurements)
** Current wind speed in m/s (hover to see current wind gust speed)